createdAt,value
2017-09-17T00:01:14.148Z,15.90
2017-09-17T00:03:40.844Z,15.90
2017-09-17T00:06:07.501Z,15.90
2017-09-17T00:08:34.188Z,16.00
2017-09-17T00:11:01.236Z,15.90
2017-09-17T00:13:28.342Z,16.00
2017-09-17T00:15:55.024Z,16.00
2017-09-17T00:18:22.076Z,15.90
2017-09-17T00:20:48.757Z,16.00
2017-09-17T00:23:15.422Z,15.90
2017-09-17T00:25:42.518Z,15.90
2017-09-17T00:28:09.180Z,15.90
2017-09-17T00:30:35.867Z,15.90
2017-09-17T00:33:02.953Z,15.90
2017-09-17T00:35:29.625Z,15.90
2017-09-17T00:37:56.348Z,15.90
2017-09-17T00:40:23.015Z,15.90
2017-09-17T00:42:49.705Z,15.90
2017-09-17T00:45:17.134Z,15.90
2017-09-17T00:47:43.839Z,15.90
2017-09-17T00:50:10.508Z,15.90
2017-09-17T00:52:37.180Z,15.90
2017-09-17T00:55:03.869Z,15.90
2017-09-17T00:57:30.540Z,15.90
2017-09-17T00:59:57.238Z,15.90
2017-09-17T01:02:23.901Z,15.90
2017-09-17T01:04:50.614Z,15.90
2017-09-17T01:07:17.281Z,15.90
2017-09-17T01:09:43.936Z,15.90
2017-09-17T01:14:59.385Z,15.90
2017-09-17T01:17:26.627Z,15.90
2017-09-17T01:19:54.428Z,15.90
2017-09-17T01:22:21.139Z,15.90
2017-09-17T01:24:48.770Z,15.90
2017-09-17T01:27:15.428Z,15.90
2017-09-17T01:29:42.107Z,15.90
2017-09-17T01:32:08.779Z,15.90
2017-09-17T01:34:35.464Z,15.90
2017-09-17T01:37:02.909Z,15.90
2017-09-17T01:39:30.017Z,15.90
2017-09-17T01:41:56.699Z,15.90
2017-09-17T01:44:23.369Z,15.90
2017-09-17T01:46:50.741Z,15.90
2017-09-17T01:49:17.409Z,15.90
2017-09-17T01:51:44.120Z,15.90
2017-09-17T01:54:11.180Z,15.90
2017-09-17T01:56:37.835Z,15.80
2017-09-17T01:59:04.546Z,15.90
2017-09-17T02:01:31.217Z,15.90
2017-09-17T02:03:57.932Z,15.90
2017-09-17T02:06:24.608Z,15.90
2017-09-17T02:08:51.264Z,15.90
2017-09-17T02:11:17.950Z,15.90
2017-09-17T02:13:44.616Z,15.90
2017-09-17T02:16:11.332Z,15.90
2017-09-17T02:18:37.988Z,15.90
2017-09-17T02:21:04.645Z,15.90
2017-09-17T02:23:32.111Z,15.90
2017-09-17T02:25:58.772Z,15.80
2017-09-17T02:28:25.480Z,15.80
2017-09-17T02:30:52.539Z,15.80
2017-09-17T02:33:19.220Z,15.80
2017-09-17T02:35:45.912Z,15.90
2017-09-17T02:38:12.573Z,15.80
2017-09-17T02:40:39.265Z,15.80
2017-09-17T02:43:05.950Z,15.90
2017-09-17T02:45:32.675Z,15.80
2017-09-17T02:47:59.337Z,15.80
2017-09-17T02:50:26.010Z,15.80
2017-09-17T02:52:52.700Z,15.80
2017-09-17T02:55:19.369Z,15.80
2017-09-17T02:57:46.067Z,15.80
2017-09-17T03:00:12.764Z,15.80
2017-09-17T03:02:40.617Z,15.80
2017-09-17T03:05:07.309Z,15.80
2017-09-17T03:07:33.979Z,15.80
2017-09-17T03:10:00.670Z,15.80
2017-09-17T03:12:27.356Z,15.80
2017-09-17T03:14:54.048Z,15.80
2017-09-17T03:17:21.120Z,15.80
2017-09-17T03:19:47.820Z,15.80
2017-09-17T03:22:14.886Z,15.80
2017-09-17T03:24:41.955Z,15.80
2017-09-17T03:27:08.673Z,15.80
2017-09-17T03:29:35.337Z,15.80
2017-09-17T03:32:02.045Z,15.80
2017-09-17T03:34:29.130Z,15.80
2017-09-17T03:36:55.872Z,15.80
2017-09-17T03:39:22.537Z,15.80
2017-09-17T03:41:49.196Z,15.80
2017-09-17T03:44:15.891Z,15.80
2017-09-17T03:46:42.949Z,15.80
2017-09-17T03:49:09.652Z,15.80
2017-09-17T03:51:36.738Z,15.80
2017-09-17T03:54:03.416Z,15.80
2017-09-17T03:56:30.124Z,15.80
2017-09-17T03:58:56.797Z,15.80
2017-09-17T04:01:23.482Z,15.80
2017-09-17T04:03:50.549Z,15.70
2017-09-17T04:06:17.212Z,15.80
2017-09-17T04:08:43.902Z,15.80
2017-09-17T04:11:10.960Z,15.80
2017-09-17T04:13:38.046Z,15.80
2017-09-17T04:16:04.720Z,15.80
2017-09-17T04:18:31.436Z,15.80
2017-09-17T04:20:59.476Z,15.80
2017-09-17T04:23:26.145Z,15.70
2017-09-17T04:25:52.845Z,15.70
2017-09-17T04:28:20.297Z,15.80
2017-09-17T04:30:47.764Z,15.70
2017-09-17T04:33:15.187Z,15.70
2017-09-17T04:35:42.294Z,15.80
2017-09-17T04:38:09.360Z,15.70
2017-09-17T04:40:36.435Z,15.70
2017-09-17T04:43:03.140Z,15.80
2017-09-17T04:45:29.830Z,15.70
2017-09-17T04:47:56.548Z,15.70
2017-09-17T04:50:23.624Z,15.80
2017-09-17T04:52:50.345Z,15.70
2017-09-17T04:55:17.032Z,15.70
2017-09-17T04:57:44.119Z,15.70
2017-09-17T05:00:11.612Z,15.70
2017-09-17T05:02:38.302Z,15.70
2017-09-17T05:05:06.544Z,15.70
2017-09-17T05:07:33.216Z,15.70
2017-09-17T05:10:00.328Z,15.70
2017-09-17T05:15:15.680Z,15.70
2017-09-17T05:17:42.753Z,15.70
2017-09-17T05:20:10.992Z,15.70
2017-09-17T05:22:37.704Z,15.70
2017-09-17T05:25:04.760Z,15.70
2017-09-17T05:27:31.841Z,15.70
2017-09-17T05:29:59.268Z,15.70
2017-09-17T05:32:26.417Z,15.70
2017-09-17T05:34:53.497Z,15.70
2017-09-17T05:37:20.937Z,15.70
2017-09-17T05:39:48.016Z,15.70
2017-09-17T05:45:04.299Z,15.70
2017-09-17T05:47:30.960Z,15.70
2017-09-17T05:49:57.668Z,15.70
2017-09-17T05:52:24.723Z,15.70
2017-09-17T05:54:51.784Z,15.70
2017-09-17T05:57:18.876Z,15.70
2017-09-17T05:59:45.560Z,15.70
2017-09-17T06:02:12.796Z,15.70
2017-09-17T06:04:39.455Z,15.70
2017-09-17T06:07:06.168Z,15.70
2017-09-17T06:09:32.852Z,15.70
2017-09-17T06:14:50.492Z,15.70
2017-09-17T06:17:17.167Z,15.70
2017-09-17T06:19:43.867Z,15.70
2017-09-17T06:22:10.923Z,15.70
2017-09-17T06:24:38.056Z,15.70
2017-09-17T06:27:05.328Z,15.70
2017-09-17T06:29:32.016Z,15.70
2017-09-17T06:31:58.725Z,15.70
2017-09-17T06:34:25.772Z,15.70
2017-09-17T06:36:52.867Z,15.70
2017-09-17T06:39:19.523Z,15.70
2017-09-17T06:41:46.228Z,15.70
2017-09-17T06:44:12.897Z,15.70
2017-09-17T06:46:40.084Z,15.70
2017-09-17T06:49:07.164Z,15.60
2017-09-17T06:51:33.830Z,15.70
2017-09-17T06:54:00.520Z,15.70
2017-09-17T06:56:27.596Z,15.70
2017-09-17T06:58:54.296Z,15.60
2017-09-17T07:01:21.359Z,15.70
2017-09-17T07:03:48.416Z,15.60
2017-09-17T07:06:15.503Z,15.70
2017-09-17T07:08:42.202Z,15.60
2017-09-17T07:11:09.296Z,15.60
2017-09-17T07:13:35.975Z,15.70
2017-09-17T07:16:03.088Z,15.70
2017-09-17T07:18:29.777Z,15.70
2017-09-17T07:20:56.447Z,15.60
2017-09-17T07:23:23.157Z,15.60
2017-09-17T07:25:50.208Z,15.70
2017-09-17T07:28:16.896Z,15.60
2017-09-17T07:30:43.548Z,15.60
2017-09-17T07:33:10.639Z,15.60
2017-09-17T07:35:37.699Z,15.70
2017-09-17T07:38:04.361Z,15.60
2017-09-17T07:40:31.100Z,15.60
2017-09-17T07:43:06.116Z,15.70
2017-09-17T07:45:33.260Z,15.60
2017-09-17T07:47:59.944Z,15.60
2017-09-17T07:50:26.661Z,15.60
2017-09-17T07:52:53.344Z,15.60
2017-09-17T07:55:20.012Z,15.60
2017-09-17T07:57:46.699Z,15.60
2017-09-17T08:00:13.368Z,15.60
2017-09-17T08:02:40.053Z,15.60
2017-09-17T08:05:07.103Z,15.60
2017-09-17T08:07:34.196Z,15.60
2017-09-17T08:10:01.256Z,15.60
2017-09-17T08:12:33.469Z,15.60
2017-09-17T08:15:00.926Z,15.60
2017-09-17T08:17:27.983Z,15.60
2017-09-17T08:19:57.220Z,15.60
2017-09-17T08:22:23.883Z,15.60
2017-09-17T08:24:50.997Z,15.60
2017-09-17T08:27:17.657Z,15.60
2017-09-17T08:29:44.314Z,15.60
2017-09-17T08:32:11.724Z,15.60
2017-09-17T08:34:39.164Z,15.60
2017-09-17T08:37:05.861Z,15.60
2017-09-17T08:39:32.520Z,15.60
2017-09-17T08:41:59.228Z,15.60
2017-09-17T08:44:25.896Z,15.60
2017-09-17T08:46:52.948Z,15.60
2017-09-17T08:49:20.024Z,15.70
2017-09-17T08:51:47.359Z,15.60
2017-09-17T08:54:14.063Z,15.60
2017-09-17T08:56:40.732Z,15.60
2017-09-17T08:59:07.444Z,15.60
2017-09-17T09:01:34.111Z,15.60
2017-09-17T09:04:00.768Z,15.70
2017-09-17T09:06:28.074Z,15.70
2017-09-17T09:08:54.736Z,15.60
2017-09-17T09:11:21.831Z,15.60
2017-09-17T09:13:48.912Z,15.70
2017-09-17T09:16:16.397Z,15.70
2017-09-17T09:18:43.068Z,15.70
2017-09-17T09:21:09.728Z,15.70
2017-09-17T09:23:36.816Z,15.70
2017-09-17T09:26:03.516Z,15.70
2017-09-17T09:28:30.991Z,15.70
2017-09-17T09:30:58.053Z,15.70
2017-09-17T09:33:24.767Z,15.70
2017-09-17T09:35:51.438Z,15.70
2017-09-17T09:38:18.092Z,15.70
2017-09-17T09:40:45.557Z,15.70
2017-09-17T09:43:12.984Z,15.70
2017-09-17T09:45:40.068Z,15.70
2017-09-17T09:48:07.127Z,15.70
2017-09-17T09:50:33.855Z,15.70
2017-09-17T09:53:01.864Z,15.70
2017-09-17T09:55:28.544Z,15.70
2017-09-17T09:57:55.233Z,15.70
2017-09-17T10:00:21.899Z,15.70
2017-09-17T10:02:48.608Z,15.70
2017-09-17T10:05:15.264Z,15.80
2017-09-17T10:07:41.936Z,15.80
2017-09-17T10:10:08.659Z,15.70
2017-09-17T10:12:36.104Z,15.80
2017-09-17T10:15:02.819Z,15.70
2017-09-17T10:17:29.499Z,15.80
2017-09-17T10:19:56.182Z,15.80
2017-09-17T10:22:23.637Z,15.80
2017-09-17T10:24:50.288Z,15.80
2017-09-17T10:27:16.979Z,15.80
2017-09-17T10:29:43.651Z,15.80
2017-09-17T10:32:10.359Z,15.80
2017-09-17T10:34:37.047Z,15.80
2017-09-17T10:37:03.703Z,15.80
2017-09-17T10:39:30.822Z,15.80
2017-09-17T10:41:58.447Z,15.80
2017-09-17T10:44:25.136Z,15.80
2017-09-17T10:46:51.849Z,15.80
2017-09-17T10:49:18.903Z,15.80
2017-09-17T10:51:45.981Z,15.80
2017-09-17T10:54:12.647Z,15.80
2017-09-17T10:56:39.368Z,15.80
2017-09-17T10:59:06.044Z,15.80
2017-09-17T11:01:32.703Z,15.80
2017-09-17T11:03:59.965Z,15.80
2017-09-17T11:06:27.423Z,15.80
2017-09-17T11:08:54.124Z,15.80
2017-09-17T11:11:20.781Z,15.80
2017-09-17T11:13:47.452Z,15.90
2017-09-17T11:16:14.925Z,15.80
2017-09-17T11:18:41.985Z,15.80
2017-09-17T11:21:08.694Z,15.80
2017-09-17T11:23:35.793Z,15.90
2017-09-17T11:26:03.219Z,15.90
2017-09-17T11:28:30.681Z,15.90
2017-09-17T11:30:57.740Z,15.90
2017-09-17T11:33:24.425Z,15.80
2017-09-17T11:35:51.859Z,15.90
2017-09-17T11:38:18.518Z,15.90
2017-09-17T11:40:45.214Z,15.90
2017-09-17T11:43:12.274Z,15.90
2017-09-17T11:45:38.984Z,15.90
2017-09-17T11:48:05.656Z,15.90
2017-09-17T11:50:32.804Z,15.90
2017-09-17T11:53:00.533Z,15.90
2017-09-17T11:55:27.200Z,15.90
2017-09-17T11:57:54.302Z,15.90
2017-09-17T12:00:20.961Z,15.90
2017-09-17T12:02:48.393Z,15.90
2017-09-17T12:05:15.104Z,15.90
2017-09-17T12:07:41.765Z,15.90
2017-09-17T12:10:08.443Z,15.90
2017-09-17T12:15:24.328Z,15.90
2017-09-17T12:17:52.259Z,15.90
2017-09-17T12:20:18.992Z,15.90
2017-09-17T12:22:46.432Z,15.90
2017-09-17T12:25:13.488Z,15.90
2017-09-17T12:27:40.572Z,15.90
2017-09-17T12:30:07.240Z,15.90
2017-09-17T12:32:34.330Z,15.90
2017-09-17T12:35:01.380Z,15.90
2017-09-17T12:37:28.489Z,15.90
2017-09-17T12:39:55.813Z,15.90
2017-09-17T12:42:22.872Z,15.90
2017-09-17T12:44:49.572Z,15.90
2017-09-17T12:47:16.874Z,15.90
2017-09-17T12:49:43.572Z,15.90
2017-09-17T12:52:10.233Z,15.90
2017-09-17T12:54:36.892Z,15.90
2017-09-17T12:57:03.595Z,15.90
2017-09-17T12:59:30.243Z,15.90
2017-09-17T13:01:57.691Z,15.90
2017-09-17T13:04:24.351Z,15.90
2017-09-17T13:06:52.140Z,15.90
2017-09-17T13:09:19.924Z,15.90
2017-09-17T13:11:46.613Z,15.90
2017-09-17T13:14:13.696Z,15.90
2017-09-17T13:16:40.365Z,15.90
2017-09-17T13:19:07.020Z,15.90
2017-09-17T13:21:33.740Z,15.90
2017-09-17T13:24:00.796Z,15.90
2017-09-17T13:26:28.442Z,15.90
2017-09-17T13:28:55.105Z,15.90
2017-09-17T13:31:21.781Z,15.90
2017-09-17T13:33:48.859Z,15.90
2017-09-17T13:36:16.153Z,15.90
2017-09-17T13:38:42.849Z,15.90
2017-09-17T13:41:09.517Z,15.90
2017-09-17T13:43:36.947Z,15.90
2017-09-17T13:46:03.636Z,15.90
2017-09-17T13:48:30.308Z,15.90
2017-09-17T13:50:56.998Z,15.90
2017-09-17T13:53:24.055Z,15.90
2017-09-17T13:55:51.170Z,15.90
2017-09-17T13:58:18.236Z,15.90
2017-09-17T14:00:45.283Z,15.90
2017-09-17T14:03:15.785Z,15.90
2017-09-17T14:08:35.444Z,15.90
2017-09-17T14:11:02.156Z,16.00
2017-09-17T14:13:29.221Z,16.00
2017-09-17T14:15:55.890Z,16.00
2017-09-17T14:18:22.586Z,16.00
2017-09-17T14:20:49.248Z,16.00
2017-09-17T14:23:16.340Z,16.00
2017-09-17T14:25:43.392Z,16.00
2017-09-17T14:28:10.889Z,16.00
2017-09-17T14:30:38.347Z,16.00
2017-09-17T14:33:05.037Z,16.00
2017-09-17T14:35:31.792Z,16.00
2017-09-17T14:37:58.872Z,16.10
2017-09-17T14:40:25.568Z,16.10
2017-09-17T14:45:37.556Z,16.10
2017-09-17T14:48:04.640Z,16.10
2017-09-17T14:50:31.301Z,16.10
2017-09-17T14:55:26.327Z,16.10
2017-09-17T14:57:53.033Z,16.10
2017-09-17T15:00:19.691Z,16.10
2017-09-17T15:02:46.400Z,16.10
2017-09-17T15:05:13.056Z,16.10
2017-09-17T15:07:39.720Z,16.10
2017-09-17T15:10:07.171Z,16.10
2017-09-17T15:17:53.476Z,16.20
2017-09-17T15:20:20.179Z,16.20
2017-09-17T15:22:48.354Z,16.20
2017-09-17T15:25:15.017Z,16.20
2017-09-17T15:27:41.707Z,16.20
2017-09-17T15:30:09.132Z,16.20
2017-09-17T15:32:35.818Z,16.20
2017-09-17T15:37:30.836Z,16.20
2017-09-17T15:39:58.615Z,16.10
2017-09-17T15:45:14.531Z,16.10
2017-09-17T15:47:41.859Z,16.10
2017-09-17T15:50:08.907Z,16.10
2017-09-17T15:52:36.008Z,16.10
2017-09-17T15:55:02.696Z,16.10
2017-09-17T15:57:29.365Z,16.10
2017-09-17T15:59:56.867Z,16.10
2017-09-17T16:02:23.680Z,16.10
2017-09-17T16:04:50.344Z,16.10
2017-09-17T16:07:17.504Z,16.10
2017-09-17T16:09:44.163Z,16.10
2017-09-17T16:14:48.908Z,16.10
2017-09-17T16:17:15.621Z,16.10
2017-09-17T16:19:42.280Z,16.10
2017-09-17T16:22:08.942Z,16.20
2017-09-17T16:24:36.273Z,16.20
2017-09-17T16:27:03.720Z,16.20
2017-09-17T16:29:31.540Z,16.20
2017-09-17T16:31:58.252Z,16.20
2017-09-17T16:34:24.948Z,16.20
2017-09-17T16:36:51.644Z,16.20
2017-09-17T16:39:19.193Z,16.20
2017-09-17T16:41:45.896Z,16.20
2017-09-17T16:44:12.560Z,16.30
2017-09-17T16:46:39.244Z,16.30
2017-09-17T16:49:05.905Z,16.30
2017-09-17T16:51:32.564Z,16.30
2017-09-17T16:53:59.256Z,16.30
2017-09-17T16:56:25.928Z,16.30
2017-09-17T16:58:52.642Z,16.30
2017-09-17T17:01:19.704Z,16.30
2017-09-17T17:03:47.495Z,16.30
2017-09-17T17:06:14.188Z,16.30
2017-09-17T17:08:40.864Z,16.30
2017-09-17T17:11:07.576Z,16.40
2017-09-17T17:13:34.236Z,16.40
2017-09-17T17:16:01.104Z,16.40
2017-09-17T17:18:28.180Z,16.40
2017-09-17T17:23:23.256Z,16.40
2017-09-17T17:25:50.441Z,16.30
2017-09-17T17:28:17.489Z,16.30
2017-09-17T17:30:44.941Z,16.30
2017-09-17T17:33:11.637Z,16.30
2017-09-17T17:35:38.348Z,16.30
2017-09-17T17:38:05.009Z,16.30
2017-09-17T17:40:31.672Z,16.30
2017-09-17T17:45:48.300Z,16.30
2017-09-17T17:48:14.964Z,16.30
2017-09-17T17:50:41.621Z,16.30
2017-09-17T17:53:08.313Z,16.20
2017-09-17T17:55:34.973Z,16.20
2017-09-17T17:58:01.658Z,16.30
2017-09-17T18:00:28.714Z,16.30
2017-09-17T18:02:55.428Z,16.20
2017-09-17T18:05:22.893Z,16.30
2017-09-17T18:07:49.579Z,16.20
2017-09-17T18:10:16.260Z,16.20
2017-09-17T18:12:42.925Z,16.20
2017-09-17T18:15:09.622Z,16.20
2017-09-17T18:17:36.689Z,16.20
2017-09-17T18:20:03.354Z,16.20
2017-09-17T18:22:30.039Z,16.20
2017-09-17T18:24:57.093Z,16.20
2017-09-17T18:27:24.173Z,16.20
2017-09-17T18:29:51.227Z,16.20
2017-09-17T18:32:19.524Z,16.20
2017-09-17T18:34:47.716Z,16.20
2017-09-17T18:37:14.385Z,16.20
2017-09-17T18:39:41.068Z,16.20
2017-09-17T18:42:07.732Z,16.20
2017-09-17T18:44:34.399Z,16.20
2017-09-17T18:47:01.529Z,16.20
2017-09-17T18:49:28.192Z,16.20
2017-09-17T18:51:55.889Z,16.20
2017-09-17T18:54:22.893Z,16.20
2017-09-17T18:56:49.545Z,16.20
2017-09-17T18:59:16.232Z,16.20
2017-09-17T19:01:42.888Z,16.20
2017-09-17T19:04:09.553Z,16.20
2017-09-17T19:06:36.244Z,16.20
2017-09-17T19:09:02.911Z,16.20
2017-09-17T19:11:29.616Z,16.20
2017-09-17T19:13:56.279Z,16.20
2017-09-17T19:16:22.981Z,16.20
2017-09-17T19:18:50.064Z,16.20
2017-09-17T19:21:16.727Z,16.20
2017-09-17T19:23:43.408Z,16.20
2017-09-17T19:26:10.456Z,16.20
2017-09-17T19:28:37.164Z,16.20
2017-09-17T19:31:03.823Z,16.20
2017-09-17T19:33:30.485Z,16.20
2017-09-17T19:35:57.945Z,16.10
2017-09-17T19:38:24.603Z,16.10
2017-09-17T19:40:51.283Z,16.10
2017-09-17T19:43:17.944Z,16.20
2017-09-17T19:45:44.644Z,16.20
2017-09-17T19:48:11.308Z,16.10
2017-09-17T19:50:37.963Z,16.10
2017-09-17T19:53:04.656Z,16.10
2017-09-17T19:55:31.316Z,16.10
2017-09-17T19:57:58.004Z,16.10
2017-09-17T20:00:24.660Z,16.10
2017-09-17T20:02:51.344Z,16.10
2017-09-17T20:05:17.997Z,16.10
2017-09-17T20:07:44.700Z,16.10
2017-09-17T20:10:11.752Z,16.10
2017-09-17T20:12:38.421Z,16.10
2017-09-17T20:15:05.113Z,16.10
2017-09-17T20:17:31.765Z,16.10
2017-09-17T20:19:58.852Z,16.10
2017-09-17T20:22:25.524Z,16.10
2017-09-17T20:24:52.240Z,16.10
2017-09-17T20:27:18.943Z,16.10
2017-09-17T20:29:45.660Z,16.10
2017-09-17T20:32:12.712Z,16.10
2017-09-17T20:34:40.132Z,16.10
2017-09-17T20:37:06.824Z,16.10
2017-09-17T20:39:33.479Z,16.10
2017-09-17T20:42:00.168Z,16.10
2017-09-17T20:44:26.825Z,16.10
2017-09-17T20:46:53.508Z,16.10
2017-09-17T20:49:20.167Z,16.10
2017-09-17T20:51:47.265Z,16.10
2017-09-17T20:54:14.694Z,16.10
2017-09-17T20:56:41.752Z,16.10
2017-09-17T20:59:08.436Z,16.10
2017-09-17T21:01:35.861Z,16.10
2017-09-17T21:04:03.328Z,16.10
2017-09-17T21:06:30.617Z,16.10
2017-09-17T21:08:58.684Z,16.10
2017-09-17T21:11:25.737Z,16.10
2017-09-17T21:13:52.408Z,16.10
2017-09-17T21:16:19.085Z,16.10
2017-09-17T21:18:47.438Z,16.10
2017-09-17T21:21:15.270Z,16.10
2017-09-17T21:23:41.957Z,16.10
2017-09-17T21:26:08.647Z,16.10
2017-09-17T21:28:35.326Z,16.10
2017-09-17T21:31:02.392Z,16.10
2017-09-17T21:33:29.084Z,16.10
2017-09-17T21:35:55.761Z,16.00
2017-09-17T21:38:22.449Z,16.10
2017-09-17T21:40:49.530Z,16.00
2017-09-17T21:45:57.657Z,16.10
2017-09-17T21:48:24.361Z,16.10
2017-09-17T21:50:51.425Z,16.10
2017-09-17T21:53:18.480Z,16.10
2017-09-17T21:55:45.174Z,16.00
2017-09-17T21:58:11.828Z,16.00
2017-09-17T22:00:38.900Z,16.00
2017-09-17T22:03:05.563Z,16.00
2017-09-17T22:05:32.258Z,16.00
2017-09-17T22:07:59.312Z,16.00
2017-09-17T22:10:27.541Z,16.00
2017-09-17T22:15:43.845Z,16.00
2017-09-17T22:18:10.501Z,16.00
2017-09-17T22:20:37.179Z,16.00
2017-09-17T22:23:03.978Z,16.00
2017-09-17T22:25:30.641Z,16.00
2017-09-17T22:27:57.347Z,16.00
2017-09-17T22:30:24.009Z,16.00
2017-09-17T22:32:50.705Z,16.00
2017-09-17T22:35:17.372Z,16.00
2017-09-17T22:37:44.085Z,16.00
2017-09-17T22:40:11.146Z,16.00
2017-09-17T22:42:37.813Z,16.00
2017-09-17T22:45:04.500Z,16.00
2017-09-17T22:47:31.168Z,16.00
2017-09-17T22:49:57.852Z,16.00
2017-09-17T22:52:24.525Z,16.00
2017-09-17T22:54:51.988Z,16.00
2017-09-17T22:57:19.059Z,16.00
2017-09-17T22:59:45.771Z,16.00
2017-09-17T23:02:12.440Z,16.00
2017-09-17T23:04:39.101Z,16.00
2017-09-17T23:07:05.792Z,16.00
2017-09-17T23:09:32.464Z,16.00
2017-09-17T23:11:59.143Z,16.00
2017-09-17T23:14:25.822Z,16.00
2017-09-17T23:16:52.517Z,16.00
2017-09-17T23:19:19.200Z,15.90
2017-09-17T23:21:45.860Z,16.00
2017-09-17T23:24:12.550Z,16.00
2017-09-17T23:26:39.218Z,15.90
2017-09-17T23:29:06.310Z,15.90
2017-09-17T23:31:34.174Z,15.90
2017-09-17T23:34:00.880Z,15.90
2017-09-17T23:36:27.554Z,16.00
2017-09-17T23:38:54.230Z,15.90
2017-09-17T23:41:21.581Z,15.90
2017-09-17T23:43:48.260Z,16.00
2017-09-17T23:46:14.940Z,15.90
2017-09-17T23:48:41.603Z,15.90
2017-09-17T23:51:08.304Z,15.90
2017-09-17T23:53:40.556Z,15.90
2017-09-17T23:56:07.986Z,15.90
2017-09-17T23:58:35.089Z,15.90
